Time;durP1;ratioP1;P1;durP2;ratioP2;P2;SDS_P1;SDS_P2;PMS_P1;PMS_P2;Temp;Humidity;BMP_temperature;BMP_pressure;BME280_temperature;BME280_humidity;BME280_pressure;Samples;Min_cycle;Max_cycle;Signal;HPM_P1;HPM_P2
2023/07/31 00:03:05;;;;;;;14.88;13.25;;;14.10;99.90;;;;;;25594001;23;20011;-54
2023/07/31 00:13:07;;;;;;;14.52;12.98;;;14.00;99.90;;;;;;25593006;23;20031;-53
2023/07/31 00:23:09;;;;;;;15.23;13.68;;;14.10;99.90;;;;;;25593170;23;20730;-56
2023/07/31 00:33:10;;;;;;;19.67;15.18;;;14.10;99.90;;;;;;25592512;23;20013;-47
2023/07/31 00:43:12;;;;;;;20.95;16.13;;;14.10;99.90;;;;;;25592267;23;20067;-55
2023/07/31 00:53:14;;;;;;;17.67;14.65;;;14.10;99.90;;;;;;25592105;23;20008;-51
2023/07/31 01:03:17;;;;;;;16.70;13.43;;;14.10;99.90;;;;;;25565308;23;20143;-54
2023/07/31 01:13:20;;;;;;;17.05;14.57;;;14.00;99.90;;;;;;25591145;23;20013;-54
2023/07/31 01:23:37;;;;;;;20.02;17.17;;;13.90;99.90;;;;;;25590984;23;20005;-56
2023/07/31 01:33:39;;;;;;;19.17;15.98;;;13.90;99.90;;;;;;25612711;23;20013;-56
2023/07/31 01:43:41;;;;;;;23.75;17.88;;;14.10;99.90;;;;;;25588313;23;20494;-56
2023/07/31 01:53:42;;;;;;;22.05;17.58;;;14.10;99.90;;;;;;25589816;23;20012;-55
2023/07/31 02:03:44;;;;;;;27.08;22.83;;;14.10;99.90;;;;;;25589403;23;20009;-56
2023/07/31 02:13:46;;;;;;;26.00;22.02;;;14.20;99.90;;;;;;25589206;23;20009;-56
2023/07/31 02:23:47;;;;;;;22.70;19.10;;;14.30;99.90;;;;;;25589094;23;20032;-56
2023/07/31 02:33:49;;;;;;;14.82;13.10;;;14.40;99.90;;;;;;25588567;23;20017;-56
2023/07/31 02:43:51;;;;;;;15.40;13.80;;;14.40;99.90;;;;;;25596038;23;20520;-56
2023/07/31 02:53:53;;;;;;;17.33;15.40;;;14.30;99.90;;;;;;25597122;23;20005;-56
2023/07/31 03:03:55;;;;;;;21.50;17.40;;;14.10;99.90;;;;;;25596359;23;20085;-56
2023/07/31 03:13:56;;;;;;;22.52;17.80;;;14.10;99.90;;;;;;25596058;23;20001;-46
2023/07/31 03:23:58;;;;;;;19.40;16.15;;;13.90;99.90;;;;;;25595699;23;20012;-56
2023/07/31 03:34:00;;;;;;;14.23;12.32;;;13.90;99.90;;;;;;25594828;23;20332;-56
2023/07/31 03:44:02;;;;;;;19.15;16.25;;;13.80;99.90;;;;;;25543778;23;20075;-57
2023/07/31 03:54:04;;;;;;;20.95;17.98;;;13.80;99.90;;;;;;25568231;23;20013;-57
2023/07/31 04:04:06;;;;;;;21.98;18.80;;;13.90;99.90;;;;;;25595612;23;20009;-55
2023/07/31 04:14:09;;;;;;;20.98;18.73;;;14.10;99.90;;;;;;25593784;23;20104;-56
2023/07/31 04:24:11;;;;;;;14.10;12.70;;;14.30;99.90;;;;;;25593208;23;20071;-55
2023/07/31 04:34:12;;;;;;;16.60;14.90;;;14.30;99.90;;;;;;25592663;23;20463;-56
2023/07/31 04:44:14;;;;;;;15.18;13.57;;;14.40;99.90;;;;;;25592604;23;20067;-47
2023/07/31 04:54:17;;;;;;;15.15;13.13;;;14.60;99.90;;;;;;25592118;23;20060;-55
2023/07/31 05:04:19;;;;;;;11.95;10.82;;;15.00;99.90;;;;;;25592825;23;20217;-53
2023/07/31 05:14:20;;;;;;;9.60;8.60;;;15.60;99.90;;;;;;25591047;23;20055;-55
2023/07/31 05:24:22;;;;;;;7.97;7.18;;;16.40;99.90;;;;;;25591158;23;20027;-55
2023/07/31 05:34:24;;;;;;;7.43;6.45;;;17.00;99.90;;;;;;25591014;23;20016;-49
2023/07/31 05:44:26;;;;;;;7.18;5.72;;;17.30;99.90;;;;;;25590109;23;20036;-58
2023/07/31 05:54:27;;;;;;;5.28;4.78;;;17.70;99.90;;;;;;25590091;23;20005;-47
2023/07/31 06:04:29;;;;;;;5.63;5.13;;;18.20;99.90;;;;;;25562856;23;20017;-57
2023/07/31 06:14:31;;;;;;;5.55;5.05;;;18.70;99.90;;;;;;25588777;23;20013;-57
2023/07/31 06:24:33;;;;;;;5.18;4.68;;;19.20;99.90;;;;;;25589430;23;20005;-51
2023/07/31 06:34:35;;;;;;;5.88;5.38;;;19.60;99.90;;;;;;25589260;23;20035;-57
2023/07/31 06:44:36;;;;;;;5.82;5.30;;;19.70;99.90;;;;;;25588677;23;20009;-50
2023/07/31 06:54:38;;;;;;;5.95;5.40;;;19.60;99.90;;;;;;25588577;23;20005;-57
2023/07/31 07:04:40;;;;;;;5.43;4.93;;;20.10;99.90;;;;;;25588082;23;20012;-58
2023/07/31 07:14:42;;;;;;;5.43;4.93;;;21.00;99.90;;;;;;25587591;23;20013;-58
2023/07/31 07:24:44;;;;;;;5.57;5.07;;;22.20;99.90;;;;;;25590421;23;20381;-57
2023/07/31 07:34:47;;;;;;;4.97;4.55;;;22.20;99.90;;;;;;25593289;23;20013;-58
2023/07/31 07:44:50;;;;;;;4.70;4.30;;;22.30;99.90;;;;;;25594544;23;20116;-50
2023/07/31 07:54:52;;;;;;;4.40;4.00;;;22.50;99.90;;;;;;25594156;23;20008;-47
2023/07/31 08:04:56;;;;;;;4.45;3.78;;;23.50;99.90;;;;;;25594019;23;20023;-58
2023/07/31 08:14:59;;;;;;;4.88;4.47;;;23.30;99.90;;;;;;25593127;23;20020;-58
2023/07/31 08:25:01;;;;;;;5.50;4.78;;;23.10;99.90;;;;;;25593391;23;20009;-59
2023/07/31 08:35:03;;;;;;;6.05;5.35;;;23.60;99.90;;;;;;25591964;23;20020;-58
2023/07/31 08:45:05;;;;;;;6.30;5.60;;;23.30;99.90;;;;;;25592277;23;20009;-58
2023/07/31 08:55:08;;;;;;;7.70;6.75;;;22.50;99.90;;;;;;25565715;23;20009;-58
2023/07/31 09:05:11;;;;;;;7.70;6.32;;;22.70;99.90;;;;;;25591322;23;20013;-58
2023/07/31 09:15:13;;;;;;;6.90;6.28;;;22.80;99.90;;;;;;25591011;23;20020;-58
2023/07/31 09:25:18;;;;;;;6.60;6.00;;;22.10;99.90;;;;;;25591291;23;20012;-58
2023/07/31 09:35:21;;;;;;;6.43;5.72;;;22.30;99.90;;;;;;25564145;23;20522;-58
2023/07/31 09:45:23;;;;;;;3.75;3.45;;;23.60;99.90;;;;;;25589982;23;20147;-49
2023/07/31 09:55:25;;;;;;;5.57;3.78;;;23.30;99.90;;;;;;25590239;23;20001;-58
2023/07/31 10:05:49;;;;;;;3.38;3.08;;;23.10;99.90;;;;;;25589697;23;20356;-58
2023/07/31 10:15:52;;;;;;;3.40;2.97;;;23.40;99.90;;;;;;25604953;23;20008;-58
2023/07/31 10:25:56;;;;;;;5.60;3.00;;;23.30;99.90;;;;;;25589526;23;20005;-58
2023/07/31 10:36:18;;;;;;;4.70;4.30;;;23.00;99.90;;;;;;25588288;23;20010;-58
2023/07/31 10:46:19;;;;;;;3.53;3.22;;;22.80;99.90;;;;;;25630047;23;20005;-59
2023/07/31 10:56:25;;;;;;;3.35;3.03;;;25.30;99.90;;;;;;25588767;23;20047;-58
2023/07/31 11:06:30;;;;;;;4.35;3.95;;;24.40;99.90;;;;;;25636778;23;20012;-58
2023/07/31 11:16:32;;;;;;;4.75;4.25;;;22.90;99.90;;;;;;25595090;23;20009;-58
2023/07/31 11:26:33;;;;;;;6.63;4.43;;;21.80;99.90;;;;;;25568812;23;20075;-58
2023/07/31 11:36:35;;;;;;;4.00;3.60;;;21.40;99.90;;;;;;25594091;23;20337;-58
2023/07/31 11:46:38;;;;;;;4.35;3.80;;;21.30;99.90;;;;;;25593369;23;20001;-58
2023/07/31 11:56:40;;;;;;;6.15;4.80;;;20.80;99.90;;;;;;25593217;23;20328;-58
2023/07/31 12:06:44;;;;;;;5.18;4.70;;;20.50;99.90;;;;;;25565736;23;20009;-57
2023/07/31 12:16:46;;;;;;;3.97;3.58;;;20.80;99.90;;;;;;25591445;23;20016;-49
2023/07/31 12:26:49;;;;;;;4.03;3.60;;;21.30;99.90;;;;;;25592275;23;20060;-58
2023/07/31 12:36:53;;;;;;;6.25;5.40;;;21.60;99.90;;;;;;25591453;23;20017;-52
2023/07/31 12:46:55;;;;;;;5.43;4.93;;;21.50;99.90;;;;;;25591110;23;20012;-58
2023/07/31 12:56:57;;;;;;;4.20;3.78;;;20.60;99.90;;;;;;25590905;23;20064;-47
2023/07/31 13:06:59;;;;;;;5.85;3.90;;;20.50;99.90;;;;;;25590227;23;20068;-58
2023/07/31 13:17:01;;;;;;;4.07;3.60;;;20.80;99.90;;;;;;25589595;23;20013;-58
2023/07/31 13:27:03;;;;;;;4.97;4.47;;;21.50;99.90;;;;;;25589762;23;20005;-46
2023/07/31 13:37:08;;;;;;;5.30;4.50;;;21.80;99.90;;;;;;25589251;23;20453;-58
2023/07/31 13:47:10;;;;;;;5.13;4.72;;;21.90;99.90;;;;;;25589900;23;20028;-58
2023/07/31 13:57:12;;;;;;;3.85;3.42;;;21.90;99.90;;;;;;25588670;23;20005;-58
2023/07/31 14:07:14;;;;;;;4.18;3.78;;;22.10;99.90;;;;;;25588365;23;20005;-58
2023/07/31 14:17:16;;;;;;;3.40;3.10;;;21.60;99.90;;;;;;25588118;23;20008;-58
2023/07/31 14:27:18;;;;;;;3.58;3.28;;;22.00;99.90;;;;;;25587910;23;20024;-58
2023/07/31 14:37:20;;;;;;;3.22;2.70;;;22.40;99.90;;;;;;25592777;23;20009;-58
2023/07/31 14:47:22;;;;;;;3.30;3.00;;;22.20;99.90;;;;;;25596019;23;20012;-47
2023/07/31 14:57:24;;;;;;;3.80;2.58;;;23.40;99.90;;;;;;25595685;23;20016;-50
2023/07/31 15:07:26;;;;;;;2.85;2.58;;;23.00;99.90;;;;;;25594732;23;20020;-58
2023/07/31 15:17:29;;;;;;;2.90;2.33;;;24.40;99.90;;;;;;25594412;23;20001;-58
2023/07/31 15:27:32;;;;;;;3.88;2.65;;;24.80;99.90;;;;;;25594170;23;20027;-58
2023/07/31 15:37:34;;;;;;;3.10;2.80;;;23.90;99.90;;;;;;25593587;23;20068;-58
2023/07/31 15:47:37;;;;;;;5.40;3.63;;;22.90;99.90;;;;;;25594552;23;20005;-58
2023/07/31 15:57:38;;;;;;;5.30;3.70;;;22.00;99.90;;;;;;25594309;23;20386;-56
2023/07/31 16:07:40;;;;;;;4.30;3.50;;;21.70;99.90;;;;;;25593533;23;20482;-58
2023/07/31 16:17:42;;;;;;;4.00;3.30;;;21.60;99.90;;;;;;25593183;23;20005;-58
2023/07/31 16:27:44;;;;;;;4.05;3.42;;;21.30;99.90;;;;;;25593950;23;20001;-58
2023/07/31 16:37:46;;;;;;;5.70;3.28;;;21.20;99.90;;;;;;25591141;23;20451;-50
2023/07/31 16:47:48;;;;;;;4.80;3.38;;;21.30;99.90;;;;;;25591806;23;20001;-58
2023/07/31 16:57:51;;;;;;;3.65;3.35;;;21.50;99.90;;;;;;25591009;23;20017;-58
2023/07/31 17:07:53;;;;;;;5.30;3.53;;;21.30;99.90;;;;;;25590632;23;20005;-58
2023/07/31 17:17:54;;;;;;;4.28;3.88;;;20.80;99.90;;;;;;25590356;23;20005;-58
2023/07/31 17:27:56;;;;;;;5.28;3.97;;;20.40;99.90;;;;;;25590099;23;20012;-58
2023/07/31 17:37:59;;;;;;;5.30;4.00;;;20.20;99.90;;;;;;25590299;23;20079;-57
2023/07/31 17:48:00;;;;;;;4.30;3.90;;;19.80;99.90;;;;;;25589300;23;20212;-57
2023/07/31 17:58:02;;;;;;;4.88;3.85;;;19.60;99.90;;;;;;25589243;23;20373;-57
2023/07/31 18:08:04;;;;;;;5.47;3.53;;;19.40;99.90;;;;;;25590722;23;20009;-57
2023/07/31 18:18:06;;;;;;;4.05;3.65;;;19.10;99.90;;;;;;25589126;23;20009;-47
2023/07/31 18:28:08;;;;;;;3.53;3.22;;;18.90;99.90;;;;;;25562357;23;20005;-58
2023/07/31 18:38:09;;;;;;;4.78;4.28;;;18.60;99.90;;;;;;25588463;23;20013;-58
2023/07/31 18:48:12;;;;;;;7.65;4.10;;;18.10;99.90;;;;;;25588707;23;20052;-57
2023/07/31 18:58:14;;;;;;;6.90;6.05;;;17.60;99.90;;;;;;25588490;23;20009;-58
2023/07/31 19:08:16;;;;;;;7.13;6.43;;;17.20;99.90;;;;;;25588282;23;20009;-57
2023/07/31 19:18:18;;;;;;;8.75;7.85;;;17.20;99.90;;;;;;25588708;23;20005;-56
2023/07/31 19:28:20;;;;;;;6.57;5.88;;;17.40;99.90;;;;;;25597140;23;20432;-57
2023/07/31 19:38:23;;;;;;;7.07;6.35;;;17.20;99.90;;;;;;25595299;23;20388;-57
2023/07/31 19:48:25;;;;;;;9.52;8.00;;;17.00;99.90;;;;;;25594831;23;20047;-56
2023/07/31 19:58:28;;;;;;;10.63;9.45;;;16.80;99.90;;;;;;25594140;23;20013;-57
2023/07/31 20:08:30;;;;;;;14.13;11.32;;;16.80;99.90;;;;;;25593262;23;20396;-56
2023/07/31 20:18:32;;;;;;;12.98;11.52;;;17.00;99.90;;;;;;25593566;23;20008;-56
2023/07/31 20:28:34;;;;;;;13.10;9.90;;;17.00;99.90;;;;;;25593140;23;20008;-56
2023/07/31 20:38:36;;;;;;;12.10;10.20;;;17.00;99.90;;;;;;25592474;23;20005;-55
2023/07/31 20:48:38;;;;;;;9.27;7.65;;;16.80;99.90;;;;;;25565943;23;20059;-57
2023/07/31 20:58:40;;;;;;;14.30;12.80;;;16.50;99.90;;;;;;25591902;23;20012;-57
2023/07/31 21:08:42;;;;;;;17.67;15.27;;;16.00;99.90;;;;;;25591894;23;20005;-57
2023/07/31 21:18:44;;;;;;;14.57;12.80;;;15.90;99.90;;;;;;25590920;23;20001;-55
2023/07/31 21:28:46;;;;;;;20.33;16.40;;;15.80;99.90;;;;;;25591130;23;20055;-45
2023/07/31 21:38:48;;;;;;;21.58;16.02;;;15.70;99.90;;;;;;25591319;23;20024;-57
2023/07/31 21:48:50;;;;;;;19.35;16.95;;;15.60;99.90;;;;;;25590186;23;20095;-55
2023/07/31 21:58:53;;;;;;;21.63;17.73;;;15.40;99.90;;;;;;25563622;23;20012;-57
2023/07/31 22:08:57;;;;;;;19.90;16.73;;;15.30;99.90;;;;;;25589657;23;20025;-56
2023/07/31 22:18:58;;;;;;;27.70;23.25;;;15.40;99.90;;;;;;25589196;23;20015;-55
2023/07/31 22:29:00;;;;;;;20.35;18.17;;;15.60;99.90;;;;;;25587354;23;20013;-48
2023/07/31 22:39:03;;;;;;;17.48;15.55;;;16.10;99.90;;;;;;25587321;23;20017;-49
2023/07/31 22:49:05;;;;;;;23.90;20.73;;;16.10;99.90;;;;;;25587035;23;20016;-56
2023/07/31 22:59:07;;;;;;;26.33;21.05;;;16.00;99.90;;;;;;25335323;23;20069;-56
2023/07/31 23:09:09;;;;;;;33.25;22.88;;;15.70;99.90;;;;;;25338007;23;20065;-56
2023/07/31 23:19:11;;;;;;;23.02;19.05;;;15.50;99.90;;;;;;25337384;23;20042;-50
2023/07/31 23:29:13;;;;;;;23.25;16.30;;;15.20;99.90;;;;;;25539912;23;20009;-56
2023/07/31 23:39:14;;;;;;;23.52;18.98;;;15.00;99.90;;;;;;25593713;23;20087;-46
2023/07/31 23:49:17;;;;;;;22.08;18.65;;;14.90;99.90;;;;;;25593502;23;20318;-57
2023/07/31 23:59:19;;;;;;;29.52;21.27;;;14.80;99.90;;;;;;25592942;23;20514;-56
